createdAt,value
2023-04-16T00:03:07.851Z,21.83
2023-04-16T00:10:27.779Z,22.77
2023-04-16T00:17:46.689Z,24.27
2023-04-16T00:25:05.690Z,24.23
2023-04-16T00:32:25.609Z,22.88
2023-04-16T00:39:44.397Z,23.15
2023-04-16T00:47:03.573Z,23.83
2023-04-16T00:54:23.465Z,22.70
2023-04-16T01:01:41.888Z,21.23
2023-04-16T01:09:00.890Z,23.02
2023-04-16T01:16:21.034Z,22.83
2023-04-16T01:23:40.866Z,26.33
2023-04-16T01:31:02.737Z,24.17
2023-04-16T01:38:31.434Z,22.65
2023-04-16T01:45:51.780Z,23.73
2023-04-16T01:53:10.220Z,21.75
2023-04-16T02:00:28.576Z,21.73
2023-04-16T02:07:48.454Z,21.20
2023-04-16T02:15:09.312Z,21.70
2023-04-16T02:22:27.767Z,22.35
2023-04-16T02:29:47.624Z,21.13
2023-04-16T02:37:09.581Z,21.17
2023-04-16T02:44:27.800Z,20.98
2023-04-16T02:51:47.458Z,21.15
2023-04-16T02:59:05.877Z,20.85
2023-04-16T03:06:24.469Z,20.50
2023-04-16T03:13:45.076Z,19.48
2023-04-16T03:21:03.536Z,20.40
2023-04-16T03:28:21.904Z,19.38
2023-04-16T03:35:42.296Z,19.67
2023-04-16T03:43:00.722Z,18.95
2023-04-16T03:50:20.626Z,20.05
2023-04-16T03:57:41.954Z,20.77
2023-04-16T04:12:22.621Z,21.48
2023-04-16T04:19:54.333Z,22.20
2023-04-16T04:27:19.970Z,23.17
2023-04-16T04:34:38.352Z,22.52
2023-04-16T04:42:00.516Z,22.27
2023-04-16T04:49:19.496Z,22.23
2023-04-16T04:56:38.691Z,21.02
2023-04-16T05:03:58.447Z,22.25
2023-04-16T05:11:17.117Z,25.92
2023-04-16T05:18:35.324Z,26.00
2023-04-16T05:25:57.431Z,25.85
2023-04-16T05:33:15.842Z,21.98
2023-04-16T05:40:34.106Z,20.80
2023-04-16T05:47:54.025Z,18.08
2023-04-16T05:55:12.500Z,18.10
2023-04-16T06:02:32.164Z,16.30
2023-04-16T06:09:52.090Z,16.30
2023-04-16T06:17:10.603Z,14.50
2023-04-16T06:24:28.969Z,14.20
2023-04-16T06:31:49.921Z,14.73
2023-04-16T06:39:08.765Z,15.85
2023-04-16T06:46:27.476Z,15.05
2023-04-16T06:53:47.521Z,14.90
2023-04-16T07:01:06.073Z,14.68
2023-04-16T07:08:24.909Z,13.90
2023-04-16T07:15:44.753Z,17.05
2023-04-16T07:23:02.984Z,15.85
2023-04-16T07:30:21.220Z,16.85
2023-04-16T07:37:41.577Z,16.63
2023-04-16T07:44:59.799Z,15.98
2023-04-16T07:52:18.015Z,14.90
2023-04-16T07:59:37.571Z,14.38
2023-04-16T08:06:55.909Z,15.65
2023-04-16T08:14:13.994Z,13.95
2023-04-16T08:21:33.747Z,11.98
2023-04-16T08:28:51.784Z,11.45
2023-04-16T08:36:09.947Z,8.48
2023-04-16T08:43:30.476Z,5.32
2023-04-16T08:50:50.542Z,3.50
2023-04-16T08:58:14.775Z,3.03
2023-04-16T09:05:34.734Z,2.78
2023-04-16T09:12:52.882Z,2.67
2023-04-16T09:20:12.604Z,2.25
2023-04-16T09:27:32.382Z,2.80
2023-04-16T09:34:57.992Z,2.70
2023-04-16T09:42:16.249Z,2.80
2023-04-16T09:49:37.277Z,3.35
2023-04-16T09:56:58.470Z,2.70
2023-04-16T10:04:17.007Z,3.10
2023-04-16T10:11:36.887Z,2.88
2023-04-16T10:18:55.413Z,1.98
2023-04-16T10:26:13.646Z,2.47
2023-04-16T10:33:35.234Z,2.90
2023-04-16T10:41:00.717Z,2.70
2023-04-16T10:48:20.130Z,2.60
2023-04-16T10:55:41.216Z,3.08
2023-04-16T11:02:59.940Z,3.75
2023-04-16T11:10:18.140Z,3.33
2023-04-16T11:17:40.598Z,5.75
2023-04-16T11:24:59.144Z,5.40
2023-04-16T11:32:22.026Z,3.60
2023-04-16T11:39:52.179Z,3.80
2023-04-16T11:47:13.890Z,3.63
2023-04-16T11:54:35.005Z,3.95
2023-04-16T12:01:56.237Z,3.55
2023-04-16T12:09:24.565Z,3.30
2023-04-16T12:16:42.801Z,3.05
2023-04-16T12:24:06.993Z,3.05
2023-04-16T12:31:38.436Z,3.17
2023-04-16T12:38:56.544Z,2.88
2023-04-16T12:46:16.429Z,2.85
2023-04-16T12:53:34.631Z,2.75
2023-04-16T13:00:52.875Z,3.13
2023-04-16T13:08:12.857Z,3.80
2023-04-16T13:15:31.098Z,3.00
2023-04-16T13:22:49.311Z,2.97
2023-04-16T13:30:11.810Z,2.20
2023-04-16T13:37:30.914Z,2.97
2023-04-16T13:44:53.137Z,3.22
2023-04-16T13:52:12.701Z,3.50
2023-04-16T13:59:30.955Z,2.40
2023-04-16T14:06:54.322Z,2.60
2023-04-16T14:14:13.925Z,2.75
2023-04-16T14:21:32.336Z,3.25
2023-04-16T14:28:53.309Z,2.33
2023-04-16T14:36:17.906Z,2.45
2023-04-16T14:43:45.053Z,2.65
2023-04-16T14:51:04.718Z,2.40
2023-04-16T14:58:30.534Z,2.35
2023-04-16T15:05:55.977Z,5.78
2023-04-16T15:13:14.224Z,2.75
2023-04-16T15:20:34.075Z,2.58
2023-04-16T15:27:52.360Z,2.25
2023-04-16T15:35:11.480Z,3.08
2023-04-16T15:42:32.535Z,6.78
2023-04-16T15:49:50.901Z,2.47
2023-04-16T15:57:09.808Z,2.85
2023-04-16T16:04:30.338Z,2.00
2023-04-16T16:11:48.806Z,2.40
2023-04-16T16:19:08.244Z,2.38
2023-04-16T16:26:28.260Z,3.35
2023-04-16T16:33:46.842Z,2.70
2023-04-16T16:41:05.687Z,2.60
2023-04-16T16:48:25.838Z,2.50
2023-04-16T16:55:44.241Z,3.95
2023-04-16T17:03:02.979Z,2.97
2023-04-16T17:10:23.523Z,6.40
2023-04-16T17:17:42.096Z,3.75
2023-04-16T17:25:00.689Z,5.05
2023-04-16T17:32:20.727Z,4.65
2023-04-16T17:39:39.181Z,5.72
2023-04-16T17:46:59.039Z,5.55
2023-04-16T17:54:19.546Z,6.28
2023-04-16T18:01:41.523Z,4.43
2023-04-16T18:09:00.979Z,3.70
2023-04-16T18:16:22.728Z,4.25
2023-04-16T18:23:41.580Z,4.93
2023-04-16T18:31:04.943Z,5.93
2023-04-16T18:45:43.660Z,6.85
2023-04-16T18:53:02.544Z,6.70
2023-04-16T19:00:23.150Z,7.65
2023-04-16T19:07:42.080Z,7.15
2023-04-16T19:15:03.706Z,8.15
2023-04-16T19:22:23.724Z,8.65
2023-04-16T19:29:43.729Z,10.02
2023-04-16T19:37:02.193Z,9.63
2023-04-16T19:44:23.634Z,9.20
2023-04-16T19:51:42.121Z,9.70
2023-04-16T19:59:15.743Z,8.38
2023-04-16T20:06:35.785Z,9.15
2023-04-16T20:13:54.603Z,13.75
2023-04-16T20:21:13.949Z,8.70
2023-04-16T20:28:36.893Z,8.73
2023-04-16T20:35:56.360Z,8.32
2023-04-16T20:43:19.180Z,9.82
2023-04-16T20:50:43.367Z,8.30
2023-04-16T20:58:03.233Z,8.65
2023-04-16T21:05:25.262Z,7.95
2023-04-16T21:12:49.650Z,8.05
2023-04-16T21:20:11.048Z,8.95
2023-04-16T21:27:30.739Z,10.85
2023-04-16T21:34:51.250Z,11.35
2023-04-16T21:42:09.663Z,11.25
2023-04-16T21:49:27.942Z,11.80
2023-04-16T21:56:47.794Z,11.82
2023-04-16T22:04:07.823Z,12.23
2023-04-16T22:11:26.384Z,12.38
2023-04-16T22:18:47.513Z,12.80
2023-04-16T22:26:06.479Z,11.75
2023-04-16T22:33:25.105Z,12.50
2023-04-16T22:40:45.294Z,13.05
2023-04-16T22:48:04.249Z,14.63
2023-04-16T22:55:23.071Z,13.82
2023-04-16T23:02:43.384Z,14.20
2023-04-16T23:10:01.996Z,13.48
2023-04-16T23:17:21.700Z,13.85
2023-04-16T23:24:41.541Z,15.75
2023-04-16T23:31:59.847Z,16.23
2023-04-16T23:39:18.447Z,16.67
2023-04-16T23:46:39.535Z,15.73
2023-04-16T23:53:57.721Z,15.65
